Stolt Invention — ELSN7 — position and weather

sailwx.info

Track history (hours):
 
Tides and Currents Weather Stations Pressure Air Temp Water Temp Dewpoint Dewpoint Depression Visibility Wind Speed Wind Dir Waves Ship Positions

Stolt Invention

Last reported at 2018-May-24 21:19 UTC. Time now 2018-May-25 18:38 UTC.
Position N 29°18' W 094°32'.

Length 177 m; draft 8.6 m.

Type: Ship (hazmat cat A). MMSI: 636010378.

Date/timePositionNaut miles runAvg speedWind from/ knotsBaromVisibWave heightAir tempDewpointWater temp
2018-May-24 21:19N 29°18' W 094°32'0 0.0
2018-May-24 14:37N 29°18' W 094°32'0 0.1
2018-May-24 14:19N 29°18' W 094°32'0 0.0
2018-May-24 13:43N 29°18' W 094°32'  
2018-May-19 19:04N 31°33' W 080°26'412.9
2018-May-19 18:44N 31°37' W 080°28'413.1
2018-May-19 18:24N 31°41' W 080°30'613.2
2018-May-19 17:56N 31°46' W 080°34'613.2
2018-May-19 17:30N 31°51' W 080°37'5 8.4
2018-May-19 16:56N 31°55' W 080°41'0 0.1
2018-May-19 16:26N 31°55' W 080°41'0 0.0
2018-May-19 15:56N 31°55' W 080°41'0 0.0
2018-May-19 15:26N 31°55' W 080°41'0 0.0
2018-May-19 14:38N 31°55' W 080°41'0 0.1
2018-May-19 14:26N 31°55' W 080°41'0 0.0
2018-May-19 13:52N 31°55' W 080°41'0 1.2
2018-May-19 13:30N 31°54' W 080°41'5 9.7
2018-May-19 13:00N 31°58' W 080°44'611.6
2018-May-19 12:31N 32°02' W 080°49'510.2
2018-May-19 12:00N 32°02' W 080°55'4 8.0
2018-May-19 11:31N 32°05' W 080°59'4 8.7
2018-May-19 11:00N 32°05' W 081°04'3 6.4
2018-May-19 10:30N 32°07' W 081°07'1 1.1
2018-May-19 09:56N 32°07' W 081°08'0 0.0
2018-May-19 09:26N 32°07' W 081°08'0 0.0
2018-May-19 08:56N 32°07' W 081°08'0 0.0
2018-May-19 08:26N 32°07' W 081°08'0 0.0
2018-May-19 07:56N 32°07' W 081°08'0 0.0
2018-May-19 07:26N 32°07' W 081°08'0 0.0
2018-May-19 06:56N 32°07' W 081°08'0 0.0
2018-May-19 06:26N 32°07' W 081°08'0 0.0
2018-May-19 05:56N 32°07' W 081°08'0 0.0
2018-May-19 05:26N 32°07' W 081°08'0 0.0
2018-May-19 04:56N 32°07' W 081°08'0 0.0
2018-May-19 04:20N 32°07' W 081°08'0 0.0
2018-May-19 03:44N 32°07' W 081°08'0 0.0
2018-May-19 03:26N 32°07' W 081°08'0 0.0
2018-May-19 02:56N 32°07' W 081°08'0 0.0
2018-May-19 02:20N 32°07' W 081°08'0 0.0
2018-May-19 01:50N 32°07' W 081°08'0 0.0
2018-May-19 01:26N 32°07' W 081°08'0 0.0
2018-May-19 00:56N 32°07' W 081°08'0 0.0
2018-May-19 00:26N 32°07' W 081°08'0 0.0
2018-May-18 23:56N 32°07' W 081°08'0 0.0
2018-May-18 23:20N 32°07' W 081°08'0 0.0
2018-May-18 22:56N 32°07' W 081°08'0 0.0
2018-May-18 22:26N 32°07' W 081°08'0 0.0
2018-May-18 21:44N 32°07' W 081°08'0 0.0
2018-May-18 21:20N 32°07' W 081°08'0 0.0
2018-May-18 20:56N 32°07' W 081°08'0 0.0
2018-May-18 20:26N 32°07' W 081°08'0 0.0
2018-May-18 19:56N 32°07' W 081°08'0 0.0
2018-May-18 19:26N 32°07' W 081°08'0 0.0
2018-May-18 18:56N 32°07' W 081°08'0 0.0
2018-May-18 18:26N 32°07' W 081°08'0 0.0
2018-May-18 17:56N 32°07' W 081°08'0 0.0
2018-May-18 17:26N 32°07' W 081°08'0 0.0
2018-May-18 16:56N 32°07' W 081°08'0 0.0
2018-May-18 16:20N 32°07' W 081°08'0 0.0
2018-May-18 15:56N 32°07' W 081°08'0 0.0
2018-May-18 15:26N 32°07' W 081°08'0 0.0
2018-May-18 14:56N 32°07' W 081°08'0 0.0
2018-May-18 14:26N 32°07' W 081°08'0 0.0
2018-May-18 13:56N 32°07' W 081°08'0 0.0
2018-May-18 13:26N 32°07' W 081°08'0 0.0
2018-May-18 12:50N 32°07' W 081°08'1 2.5
2018-May-18 12:30N 32°06' W 081°07'3 5.9
2018-May-18 12:00N 32°05' W 081°04'4 8.6
2018-May-18 11:30N 32°05' W 080°59'611.1
2018-May-18 11:00N 32°02' W 080°54'612.0
2018-May-18 10:30N 31°60' W 080°47'612.1
2018-May-18 10:00N 31°58' W 080°41'1 2.3
2018-May-18 09:25N 31°59' W 080°40'0 0.1
2018-May-18 08:55N 31°59' W 080°40'0 0.1
2018-May-18 08:25N 31°59' W 080°40'0 0.1
2018-May-18 07:55N 31°59' W 080°40'0 0.0
2018-May-18 07:25N 31°59' W 080°40'0 0.0
2018-May-18 06:49N 31°59' W 080°40'0 0.0
2018-May-18 06:25N 31°59' W 080°40'0 0.0
2018-May-18 05:55N 31°59' W 080°40'0 0.0
2018-May-18 05:25N 31°59' W 080°40'0 0.1
2018-May-18 04:55N 31°59' W 080°40'0 0.0
2018-May-18 04:25N 31°59' W 080°40'0 0.0
2018-May-18 03:55N 31°59' W 080°40'0 0.0
2018-May-18 03:19N 31°59' W 080°40'0 0.0
2018-May-18 02:49N 31°59' W 080°40'0 0.0
2018-May-18 02:19N 31°59' W 080°40'0 0.0
2018-May-18 01:55N 31°59' W 080°40'0 0.0
2018-May-18 01:19N 31°59' W 080°40'0 0.1
2018-May-18 00:55N 31°59' W 080°40'0 0.0
2018-May-18 00:25N 31°59' W 080°40'0 0.0
2018-May-17 23:49N 31°59' W 080°40'0 0.0
2018-May-17 23:25N 31°59' W 080°40'0 0.0
2018-May-17 22:55N 31°59' W 080°40'0 0.0
2018-May-17 22:25N 31°59' W 080°40'0 0.0
2018-May-17 21:55N 31°59' W 080°40'0 0.0
2018-May-17 21:25N 31°59' W 080°40'0 0.0
2018-May-17 20:55N 31°59' W 080°40'0 0.0
2018-May-17 20:25N 31°59' W 080°40'0 0.0
2018-May-17 19:49N 31°59' W 080°40'0 0.0
2018-May-17 19:19N 31°59' W 080°40'0 0.0
2018-May-17 18:55N 31°59' W 080°40'0 0.0
2018-May-17 18:25N 31°59' W 080°40'0 0.0
2018-May-17 17:55N 31°59' W 080°40'0 0.0
2018-May-17 17:25N 31°59' W 080°40'0 0.0
2018-May-17 16:55N 31°59' W 080°40'0 0.0
2018-May-17 16:25N 31°59' W 080°40'0 0.0
2018-May-17 15:55N 31°59' W 080°40'0 0.0
2018-May-17 15:25N 31°59' W 080°40'0 0.0
2018-May-17 14:43N 31°59' W 080°40'0 0.0
2018-May-17 14:25N 31°59' W 080°40'0 0.0
2018-May-17 13:55N 31°59' W 080°40'0 0.0
2018-May-17 13:25N 31°59' W 080°40'0 0.0
2018-May-17 12:49N 31°59' W 080°40'0 0.0
2018-May-17 12:13N 31°59' W 080°40'0 0.0
2018-May-17 11:55N 31°59' W 080°40'0 0.0
2018-May-17 11:19N 31°59' W 080°40'0 0.0
2018-May-17 10:55N 31°59' W 080°40'0 0.0
2018-May-17 10:25N 31°59' W 080°40'0 0.0
2018-May-17 09:49N 31°59' W 080°40'0 0.0
2018-May-17 09:25N 31°59' W 080°40'0 0.0
2018-May-17 08:55N 31°59' W 080°40'0 0.0
2018-May-17 08:19N 31°59' W 080°40'0 0.0
2018-May-17 07:55N 31°59' W 080°40'0 0.1
2018-May-17 07:25N 31°59' W 080°40'0 0.1
2018-May-17 06:55N 31°59' W 080°40'0 0.1
2018-May-17 06:19N 31°59' W 080°40'0 0.1
2018-May-17 05:55N 31°59' W 080°40'0 0.0
2018-May-17 05:25N 31°59' W 080°40'0 0.0
2018-May-17 04:55N 31°59' W 080°40'0 0.0
2018-May-17 04:25N 31°59' W 080°40'0 0.1
2018-May-17 04:01N 31°59' W 080°40'3 6.9
2018-May-17 03:31N 31°58' W 080°44'612.5
2018-May-17 03:00N 32°02' W 080°50'510.2
2018-May-17 02:30N 32°03' W 080°56'510.2
2018-May-17 02:00N 32°06' W 080°60'3 5.3
2018-May-17 01:31N 32°05' W 081°03'0 0.0
2018-May-17 00:59N 32°05' W 081°03'0 0.0
2018-May-17 00:31N 32°05' W 081°03'0 0.0
2018-May-17 00:00N 32°05' W 081°03'0 0.0
2018-May-16 23:31N 32°05' W 081°03'0 0.0
2018-May-16 23:01N 32°05' W 081°03'0 0.0
2018-May-16 22:31N 32°05' W 081°03'0 0.0
2018-May-16 22:00N 32°05' W 081°03'0 0.0
2018-May-16 21:31N 32°05' W 081°03'0 0.0
2018-May-16 21:01N 32°05' W 081°03'0 0.0
2018-May-16 20:31N 32°05' W 081°03'0 0.0
2018-May-16 20:01N 32°05' W 081°03'0 0.0
2018-May-16 19:30N 32°05' W 081°03'0 0.0
2018-May-16 19:00N 32°05' W 081°03'0 0.0
2018-May-16 18:31N 32°05' W 081°03'0 0.0
2018-May-16 18:01N 32°05' W 081°03'0 0.0
2018-May-16 17:31N 32°05' W 081°03'0 0.0
2018-May-16 17:01N 32°05' W 081°03'0 0.0
2018-May-16 16:30N 32°05' W 081°03'0 0.0
2018-May-16 16:00N 32°05' W 081°03'0 0.0
2018-May-16 15:31N 32°05' W 081°03'0 0.0
2018-May-16 15:01N 32°05' W 081°03'0 0.0
2018-May-16 14:31N 32°05' W 081°03'0 0.0
2018-May-16 14:01N 32°05' W 081°03'0 0.0
2018-May-16 13:31N 32°05' W 081°03'1 2.3
2018-May-16 13:01N 32°05' W 081°04'3 5.8
2018-May-16 12:31N 32°06' W 081°01'611.5
2018-May-16 12:00N 32°02' W 080°55'612.1
2018-May-16 11:30N 32°01' W 080°48'714.2
2018-May-16 11:00N 31°58' W 080°41'5 9.3
2018-May-16 10:30N 31°57' W 080°36'5 8.9
2018-May-16 09:54N 31°57' W 080°30'5 9.2
2018-May-16 09:22N 31°57' W 080°24'22 9.4
2018-May-16 07:04N 31°58' W 079°58'1 9.8
2018-May-16 06:55N 31°58' W 079°57'4 9.8
2018-May-16 06:30N 31°60' W 079°52'  
Track history (hours):
 
Tides and Currents Weather Stations Pressure Air Temp Water Temp Dewpoint Dewpoint Depression Visibility Wind Speed Wind Dir Waves Ship Positions

Stolt Invention

Last reported at 2018-May-24 21:19 UTC. Time now 2018-May-25 18:38 UTC.
Position N 29°18' W 094°32'.

Length 177 m; draft 8.6 m.

Type: Ship (hazmat cat A). MMSI: 636010378.

Date/timePositionNaut miles runAvg speedWind from/ knotsBaromVisibWave heightAir tempDewpointWater temp
2018-May-24 21:19N 29°18' W 094°32'0 0.0
2018-May-24 14:37N 29°18' W 094°32'0 0.1
2018-May-24 14:19N 29°18' W 094°32'0 0.0
2018-May-24 13:43N 29°18' W 094°32'  
2018-May-19 19:04N 31°33' W 080°26'412.9
2018-May-19 18:44N 31°37' W 080°28'413.1
2018-May-19 18:24N 31°41' W 080°30'613.2
2018-May-19 17:56N 31°46' W 080°34'613.2
2018-May-19 17:30N 31°51' W 080°37'5 8.4
2018-May-19 16:56N 31°55' W 080°41'0 0.1
2018-May-19 16:26N 31°55' W 080°41'0 0.0
2018-May-19 15:56N 31°55' W 080°41'0 0.0
2018-May-19 15:26N 31°55' W 080°41'0 0.0
2018-May-19 14:38N 31°55' W 080°41'0 0.1
2018-May-19 14:26N 31°55' W 080°41'0 0.0
2018-May-19 13:52N 31°55' W 080°41'0 1.2
2018-May-19 13:30N 31°54' W 080°41'5 9.7
2018-May-19 13:00N 31°58' W 080°44'611.6
2018-May-19 12:31N 32°02' W 080°49'510.2
2018-May-19 12:00N 32°02' W 080°55'4 8.0
2018-May-19 11:31N 32°05' W 080°59'4 8.7
2018-May-19 11:00N 32°05' W 081°04'3 6.4
2018-May-19 10:30N 32°07' W 081°07'1 1.1
2018-May-19 09:56N 32°07' W 081°08'0 0.0
2018-May-19 09:26N 32°07' W 081°08'0 0.0
2018-May-19 08:56N 32°07' W 081°08'0 0.0
2018-May-19 08:26N 32°07' W 081°08'0 0.0
2018-May-19 07:56N 32°07' W 081°08'0 0.0
2018-May-19 07:26N 32°07' W 081°08'0 0.0
2018-May-19 06:56N 32°07' W 081°08'0 0.0
2018-May-19 06:26N 32°07' W 081°08'0 0.0
2018-May-19 05:56N 32°07' W 081°08'0 0.0
2018-May-19 05:26N 32°07' W 081°08'0 0.0
2018-May-19 04:56N 32°07' W 081°08'0 0.0
2018-May-19 04:20N 32°07' W 081°08'0 0.0
2018-May-19 03:44N 32°07' W 081°08'0 0.0
2018-May-19 03:26N 32°07' W 081°08'0 0.0
2018-May-19 02:56N 32°07' W 081°08'0 0.0
2018-May-19 02:20N 32°07' W 081°08'0 0.0
2018-May-19 01:50N 32°07' W 081°08'0 0.0
2018-May-19 01:26N 32°07' W 081°08'0 0.0
2018-May-19 00:56N 32°07' W 081°08'0 0.0
2018-May-19 00:26N 32°07' W 081°08'0 0.0
2018-May-18 23:56N 32°07' W 081°08'0 0.0
2018-May-18 23:20N 32°07' W 081°08'0 0.0
2018-May-18 22:56N 32°07' W 081°08'0 0.0
2018-May-18 22:26N 32°07' W 081°08'0 0.0
2018-May-18 21:44N 32°07' W 081°08'0 0.0
2018-May-18 21:20N 32°07' W 081°08'0 0.0
2018-May-18 20:56N 32°07' W 081°08'0 0.0
2018-May-18 20:26N 32°07' W 081°08'0 0.0
2018-May-18 19:56N 32°07' W 081°08'0 0.0
2018-May-18 19:26N 32°07' W 081°08'0 0.0
2018-May-18 18:56N 32°07' W 081°08'0 0.0
2018-May-18 18:26N 32°07' W 081°08'0 0.0
2018-May-18 17:56N 32°07' W 081°08'0 0.0
2018-May-18 17:26N 32°07' W 081°08'0 0.0
2018-May-18 16:56N 32°07' W 081°08'0 0.0
2018-May-18 16:20N 32°07' W 081°08'0 0.0
2018-May-18 15:56N 32°07' W 081°08'0 0.0
2018-May-18 15:26N 32°07' W 081°08'0 0.0
2018-May-18 14:56N 32°07' W 081°08'0 0.0
2018-May-18 14:26N 32°07' W 081°08'0 0.0
2018-May-18 13:56N 32°07' W 081°08'0 0.0
2018-May-18 13:26N 32°07' W 081°08'0 0.0
2018-May-18 12:50N 32°07' W 081°08'1 2.5
2018-May-18 12:30N 32°06' W 081°07'3 5.9
2018-May-18 12:00N 32°05' W 081°04'4 8.6
2018-May-18 11:30N 32°05' W 080°59'611.1
2018-May-18 11:00N 32°02' W 080°54'612.0
2018-May-18 10:30N 31°60' W 080°47'612.1
2018-May-18 10:00N 31°58' W 080°41'1 2.3
2018-May-18 09:25N 31°59' W 080°40'0 0.1
2018-May-18 08:55N 31°59' W 080°40'0 0.1
2018-May-18 08:25N 31°59' W 080°40'0 0.1
2018-May-18 07:55N 31°59' W 080°40'0 0.0
2018-May-18 07:25N 31°59' W 080°40'0 0.0
2018-May-18 06:49N 31°59' W 080°40'0 0.0
2018-May-18 06:25N 31°59' W 080°40'0 0.0
2018-May-18 05:55N 31°59' W 080°40'0 0.0
2018-May-18 05:25N 31°59' W 080°40'0 0.1
2018-May-18 04:55N 31°59' W 080°40'0 0.0
2018-May-18 04:25N 31°59' W 080°40'0 0.0
2018-May-18 03:55N 31°59' W 080°40'0 0.0
2018-May-18 03:19N 31°59' W 080°40'0 0.0
2018-May-18 02:49N 31°59' W 080°40'0 0.0
2018-May-18 02:19N 31°59' W 080°40'0 0.0
2018-May-18 01:55N 31°59' W 080°40'0 0.0
2018-May-18 01:19N 31°59' W 080°40'0 0.1
2018-May-18 00:55N 31°59' W 080°40'0 0.0
2018-May-18 00:25N 31°59' W 080°40'0 0.0
2018-May-17 23:49N 31°59' W 080°40'0 0.0
2018-May-17 23:25N 31°59' W 080°40'0 0.0
2018-May-17 22:55N 31°59' W 080°40'0 0.0
2018-May-17 22:25N 31°59' W 080°40'0 0.0
2018-May-17 21:55N 31°59' W 080°40'0 0.0
2018-May-17 21:25N 31°59' W 080°40'0 0.0
2018-May-17 20:55N 31°59' W 080°40'0 0.0
2018-May-17 20:25N 31°59' W 080°40'0 0.0
2018-May-17 19:49N 31°59' W 080°40'0 0.0
2018-May-17 19:19N 31°59' W 080°40'0 0.0
2018-May-17 18:55N 31°59' W 080°40'0 0.0
2018-May-17 18:25N 31°59' W 080°40'0 0.0
2018-May-17 17:55N 31°59' W 080°40'0 0.0
2018-May-17 17:25N 31°59' W 080°40'0 0.0
2018-May-17 16:55N 31°59' W 080°40'0 0.0
2018-May-17 16:25N 31°59' W 080°40'0 0.0
2018-May-17 15:55N 31°59' W 080°40'0 0.0
2018-May-17 15:25N 31°59' W 080°40'0 0.0
2018-May-17 14:43N 31°59' W 080°40'0 0.0
2018-May-17 14:25N 31°59' W 080°40'0 0.0
2018-May-17 13:55N 31°59' W 080°40'0 0.0
2018-May-17 13:25N 31°59' W 080°40'0 0.0
2018-May-17 12:49N 31°59' W 080°40'0 0.0
2018-May-17 12:13N 31°59' W 080°40'0 0.0
2018-May-17 11:55N 31°59' W 080°40'0 0.0
2018-May-17 11:19N 31°59' W 080°40'0 0.0
2018-May-17 10:55N 31°59' W 080°40'0 0.0
2018-May-17 10:25N 31°59' W 080°40'0 0.0
2018-May-17 09:49N 31°59' W 080°40'0 0.0
2018-May-17 09:25N 31°59' W 080°40'0 0.0
2018-May-17 08:55N 31°59' W 080°40'0 0.0
2018-May-17 08:19N 31°59' W 080°40'0 0.0
2018-May-17 07:55N 31°59' W 080°40'0 0.1
2018-May-17 07:25N 31°59' W 080°40'0 0.1
2018-May-17 06:55N 31°59' W 080°40'0 0.1
2018-May-17 06:19N 31°59' W 080°40'0 0.1
2018-May-17 05:55N 31°59' W 080°40'0 0.0
2018-May-17 05:25N 31°59' W 080°40'0 0.0
2018-May-17 04:55N 31°59' W 080°40'0 0.0
2018-May-17 04:25N 31°59' W 080°40'0 0.1
2018-May-17 04:01N 31°59' W 080°40'3 6.9
2018-May-17 03:31N 31°58' W 080°44'612.5
2018-May-17 03:00N 32°02' W 080°50'510.2
2018-May-17 02:30N 32°03' W 080°56'510.2
2018-May-17 02:00N 32°06' W 080°60'3 5.3
2018-May-17 01:31N 32°05' W 081°03'0 0.0
2018-May-17 00:59N 32°05' W 081°03'0 0.0
2018-May-17 00:31N 32°05' W 081°03'0 0.0
2018-May-17 00:00N 32°05' W 081°03'0 0.0
2018-May-16 23:31N 32°05' W 081°03'0 0.0
2018-May-16 23:01N 32°05' W 081°03'0 0.0
2018-May-16 22:31N 32°05' W 081°03'0 0.0
2018-May-16 22:00N 32°05' W 081°03'0 0.0
2018-May-16 21:31N 32°05' W 081°03'0 0.0
2018-May-16 21:01N 32°05' W 081°03'0 0.0
2018-May-16 20:31N 32°05' W 081°03'0 0.0
2018-May-16 20:01N 32°05' W 081°03'0 0.0
2018-May-16 19:30N 32°05' W 081°03'0 0.0
2018-May-16 19:00N 32°05' W 081°03'0 0.0
2018-May-16 18:31N 32°05' W 081°03'0 0.0
2018-May-16 18:01N 32°05' W 081°03'0 0.0
2018-May-16 17:31N 32°05' W 081°03'0 0.0
2018-May-16 17:01N 32°05' W 081°03'0 0.0
2018-May-16 16:30N 32°05' W 081°03'0 0.0
2018-May-16 16:00N 32°05' W 081°03'0 0.0
2018-May-16 15:31N 32°05' W 081°03'0 0.0
2018-May-16 15:01N 32°05' W 081°03'0 0.0
2018-May-16 14:31N 32°05' W 081°03'0 0.0
2018-May-16 14:01N 32°05' W 081°03'0 0.0
2018-May-16 13:31N 32°05' W 081°03'1 2.3
2018-May-16 13:01N 32°05' W 081°04'3 5.8
2018-May-16 12:31N 32°06' W 081°01'611.5
2018-May-16 12:00N 32°02' W 080°55'612.1
2018-May-16 11:30N 32°01' W 080°48'714.2
2018-May-16 11:00N 31°58' W 080°41'5 9.3
2018-May-16 10:30N 31°57' W 080°36'5 8.9
2018-May-16 09:54N 31°57' W 080°30'5 9.2
2018-May-16 09:22N 31°57' W 080°24'22 9.4
2018-May-16 07:04N 31°58' W 079°58'1 9.8
2018-May-16 06:55N 31°58' W 079°57'4 9.8
2018-May-16 06:30N 31°60' W 079°52'  

Dump ship's entire track history